sensor_id;sensor_type;location;lat;lon;timestamp;P1;durP1;ratioP1;P2;durP2;ratioP2
20124;SDS011;10223;50.862;4.360;2022-08-19T00:01:54;23.40;;;18.08;;
20124;SDS011;10223;50.862;4.360;2022-08-19T00:04:23;25.85;;;18.70;;
20124;SDS011;10223;50.862;4.360;2022-08-19T00:06:51;23.60;;;18.10;;
20124;SDS011;10223;50.862;4.360;2022-08-19T00:09:19;23.80;;;17.83;;
20124;SDS011;10223;50.862;4.360;2022-08-19T00:11:48;23.95;;;18.83;;
20124;SDS011;10223;50.862;4.360;2022-08-19T00:14:16;29.00;;;17.90;;
20124;SDS011;10223;50.862;4.360;2022-08-19T00:16:44;28.45;;;20.77;;
20124;SDS011;10223;50.862;4.360;2022-08-19T00:19:13;31.38;;;21.55;;
20124;SDS011;10223;50.862;4.360;2022-08-19T00:21:40;32.00;;;22.30;;
20124;SDS011;10223;50.862;4.360;2022-08-19T00:24:09;31.88;;;23.70;;
20124;SDS011;10223;50.862;4.360;2022-08-19T00:26:38;40.88;;;27.00;;
20124;SDS011;10223;50.862;4.360;2022-08-19T00:29:08;40.05;;;27.10;;
20124;SDS011;10223;50.862;4.360;2022-08-19T00:31:37;44.28;;;28.50;;
20124;SDS011;10223;50.862;4.360;2022-08-19T00:34:05;41.58;;;26.63;;
20124;SDS011;10223;50.862;4.360;2022-08-19T00:36:32;40.55;;;27.23;;
20124;SDS011;10223;50.862;4.360;2022-08-19T00:38:59;42.10;;;28.73;;
20124;SDS011;10223;50.862;4.360;2022-08-19T00:41:27;44.42;;;28.08;;
20124;SDS011;10223;50.862;4.360;2022-08-19T00:44:01;46.22;;;29.98;;
20124;SDS011;10223;50.862;4.360;2022-08-19T00:46:31;47.10;;;30.33;;
20124;SDS011;10223;50.862;4.360;2022-08-19T00:48:58;52.38;;;32.67;;
20124;SDS011;10223;50.862;4.360;2022-08-19T00:51:27;51.22;;;30.35;;
20124;SDS011;10223;50.862;4.360;2022-08-19T00:53:57;51.88;;;32.00;;
20124;SDS011;10223;50.862;4.360;2022-08-19T00:56:25;49.35;;;33.25;;
20124;SDS011;10223;50.862;4.360;2022-08-19T00:58:53;47.05;;;31.83;;
20124;SDS011;10223;50.862;4.360;2022-08-19T01:01:22;50.75;;;33.88;;
20124;SDS011;10223;50.862;4.360;2022-08-19T01:03:50;52.30;;;32.10;;
20124;SDS011;10223;50.862;4.360;2022-08-19T01:06:17;49.35;;;31.45;;
20124;SDS011;10223;50.862;4.360;2022-08-19T01:08:44;50.85;;;32.00;;
20124;SDS011;10223;50.862;4.360;2022-08-19T01:11:11;50.47;;;33.20;;
20124;SDS011;10223;50.862;4.360;2022-08-19T01:13:39;51.08;;;33.50;;
20124;SDS011;10223;50.862;4.360;2022-08-19T01:16:06;49.22;;;32.25;;
20124;SDS011;10223;50.862;4.360;2022-08-19T01:18:36;45.58;;;30.80;;
20124;SDS011;10223;50.862;4.360;2022-08-19T01:21:09;44.88;;;28.77;;
20124;SDS011;10223;50.862;4.360;2022-08-19T01:23:43;42.92;;;28.10;;
20124;SDS011;10223;50.862;4.360;2022-08-19T01:26:11;43.55;;;28.75;;
20124;SDS011;10223;50.862;4.360;2022-08-19T01:28:40;44.08;;;27.70;;
20124;SDS011;10223;50.862;4.360;2022-08-19T01:31:09;39.65;;;27.27;;
20124;SDS011;10223;50.862;4.360;2022-08-19T01:33:40;38.55;;;27.02;;
20124;SDS011;10223;50.862;4.360;2022-08-19T01:36:08;39.80;;;25.23;;
20124;SDS011;10223;50.862;4.360;2022-08-19T01:38:39;44.53;;;28.45;;
20124;SDS011;10223;50.862;4.360;2022-08-19T01:41:10;41.03;;;27.23;;
20124;SDS011;10223;50.862;4.360;2022-08-19T01:43:37;38.13;;;27.17;;
20124;SDS011;10223;50.862;4.360;2022-08-19T01:46:05;35.47;;;25.45;;
20124;SDS011;10223;50.862;4.360;2022-08-19T01:48:33;37.47;;;24.45;;
20124;SDS011;10223;50.862;4.360;2022-08-19T01:51:01;34.85;;;23.00;;
20124;SDS011;10223;50.862;4.360;2022-08-19T01:53:28;34.42;;;23.75;;
20124;SDS011;10223;50.862;4.360;2022-08-19T01:55:55;33.33;;;24.08;;
20124;SDS011;10223;50.862;4.360;2022-08-19T01:58:24;32.50;;;23.23;;
20124;SDS011;10223;50.862;4.360;2022-08-19T02:00:55;34.92;;;24.05;;
20124;SDS011;10223;50.862;4.360;2022-08-19T02:03:22;34.95;;;24.05;;
20124;SDS011;10223;50.862;4.360;2022-08-19T02:05:53;36.55;;;25.15;;
20124;SDS011;10223;50.862;4.360;2022-08-19T02:08:21;29.48;;;21.75;;
20124;SDS011;10223;50.862;4.360;2022-08-19T02:10:48;30.75;;;20.27;;
20124;SDS011;10223;50.862;4.360;2022-08-19T02:13:15;28.73;;;19.50;;
20124;SDS011;10223;50.862;4.360;2022-08-19T02:15:44;25.55;;;18.27;;
20124;SDS011;10223;50.862;4.360;2022-08-19T02:18:11;25.50;;;16.60;;
20124;SDS011;10223;50.862;4.360;2022-08-19T02:20:39;30.30;;;20.08;;
20124;SDS011;10223;50.862;4.360;2022-08-19T02:23:07;26.13;;;17.25;;
20124;SDS011;10223;50.862;4.360;2022-08-19T02:25:34;26.80;;;18.65;;
20124;SDS011;10223;50.862;4.360;2022-08-19T02:28:02;25.08;;;17.50;;
20124;SDS011;10223;50.862;4.360;2022-08-19T02:30:29;28.65;;;18.20;;
20124;SDS011;10223;50.862;4.360;2022-08-19T02:32:57;30.52;;;18.55;;
20124;SDS011;10223;50.862;4.360;2022-08-19T02:35:24;28.52;;;20.02;;
20124;SDS011;10223;50.862;4.360;2022-08-19T02:37:52;30.13;;;20.73;;
20124;SDS011;10223;50.862;4.360;2022-08-19T02:40:35;33.50;;;21.08;;
20124;SDS011;10223;50.862;4.360;2022-08-19T02:43:03;28.08;;;19.27;;
20124;SDS011;10223;50.862;4.360;2022-08-19T02:45:31;30.00;;;19.75;;
20124;SDS011;10223;50.862;4.360;2022-08-19T02:48:00;28.02;;;19.77;;
20124;SDS011;10223;50.862;4.360;2022-08-19T02:50:29;31.80;;;20.55;;
20124;SDS011;10223;50.862;4.360;2022-08-19T02:52:56;30.25;;;20.20;;
20124;SDS011;10223;50.862;4.360;2022-08-19T02:55:23;29.27;;;20.17;;
20124;SDS011;10223;50.862;4.360;2022-08-19T02:57:50;32.88;;;21.25;;
20124;SDS011;10223;50.862;4.360;2022-08-19T03:00:17;32.33;;;21.17;;
20124;SDS011;10223;50.862;4.360;2022-08-19T03:02:44;30.13;;;19.65;;
20124;SDS011;10223;50.862;4.360;2022-08-19T03:05:13;31.33;;;19.92;;
20124;SDS011;10223;50.862;4.360;2022-08-19T03:07:39;30.35;;;19.70;;
20124;SDS011;10223;50.862;4.360;2022-08-19T03:10:07;30.80;;;19.02;;
20124;SDS011;10223;50.862;4.360;2022-08-19T03:12:35;28.17;;;17.77;;
20124;SDS011;10223;50.862;4.360;2022-08-19T03:15:03;28.92;;;18.52;;
20124;SDS011;10223;50.862;4.360;2022-08-19T03:17:32;30.30;;;17.95;;
20124;SDS011;10223;50.862;4.360;2022-08-19T03:19:59;29.13;;;19.15;;
20124;SDS011;10223;50.862;4.360;2022-08-19T03:22:27;32.08;;;18.80;;
20124;SDS011;10223;50.862;4.360;2022-08-19T03:24:55;30.33;;;19.13;;
20124;SDS011;10223;50.862;4.360;2022-08-19T03:27:22;28.42;;;19.02;;
20124;SDS011;10223;50.862;4.360;2022-08-19T03:29:48;30.10;;;18.27;;
20124;SDS011;10223;50.862;4.360;2022-08-19T03:32:16;29.33;;;19.40;;
20124;SDS011;10223;50.862;4.360;2022-08-19T03:34:43;30.45;;;18.95;;
20124;SDS011;10223;50.862;4.360;2022-08-19T03:37:10;31.42;;;20.10;;
20124;SDS011;10223;50.862;4.360;2022-08-19T03:39:40;30.45;;;19.60;;
20124;SDS011;10223;50.862;4.360;2022-08-19T03:42:08;33.03;;;20.48;;
20124;SDS011;10223;50.862;4.360;2022-08-19T03:44:35;35.17;;;20.13;;
20124;SDS011;10223;50.862;4.360;2022-08-19T03:47:02;31.63;;;19.02;;
20124;SDS011;10223;50.862;4.360;2022-08-19T03:49:31;38.30;;;20.73;;
20124;SDS011;10223;50.862;4.360;2022-08-19T03:52:00;28.90;;;18.35;;
20124;SDS011;10223;50.862;4.360;2022-08-19T03:54:27;29.63;;;17.63;;
20124;SDS011;10223;50.862;4.360;2022-08-19T03:56:56;31.73;;;19.17;;
20124;SDS011;10223;50.862;4.360;2022-08-19T03:59:24;31.35;;;18.63;;
20124;SDS011;10223;50.862;4.360;2022-08-19T04:01:53;27.67;;;18.90;;
20124;SDS011;10223;50.862;4.360;2022-08-19T04:04:21;27.73;;;17.60;;
20124;SDS011;10223;50.862;4.360;2022-08-19T04:06:48;31.52;;;18.27;;
20124;SDS011;10223;50.862;4.360;2022-08-19T04:09:16;33.40;;;19.20;;
20124;SDS011;10223;50.862;4.360;2022-08-19T04:11:45;34.00;;;19.35;;
20124;SDS011;10223;50.862;4.360;2022-08-19T04:14:16;31.52;;;20.13;;
20124;SDS011;10223;50.862;4.360;2022-08-19T04:16:46;33.70;;;20.45;;
20124;SDS011;10223;50.862;4.360;2022-08-19T04:19:15;27.98;;;17.88;;
20124;SDS011;10223;50.862;4.360;2022-08-19T04:21:43;33.75;;;19.83;;
20124;SDS011;10223;50.862;4.360;2022-08-19T04:24:11;33.15;;;19.27;;
20124;SDS011;10223;50.862;4.360;2022-08-19T04:26:38;31.88;;;18.20;;
20124;SDS011;10223;50.862;4.360;2022-08-19T04:29:08;32.22;;;19.55;;
20124;SDS011;10223;50.862;4.360;2022-08-19T04:31:38;35.45;;;20.13;;
20124;SDS011;10223;50.862;4.360;2022-08-19T04:34:07;31.20;;;18.90;;
20124;SDS011;10223;50.862;4.360;2022-08-19T04:36:36;36.13;;;18.33;;
20124;SDS011;10223;50.862;4.360;2022-08-19T04:39:07;33.35;;;19.83;;
20124;SDS011;10223;50.862;4.360;2022-08-19T04:41:36;28.23;;;18.30;;
20124;SDS011;10223;50.862;4.360;2022-08-19T04:44:29;30.55;;;17.05;;
20124;SDS011;10223;50.862;4.360;2022-08-19T04:46:57;31.30;;;18.00;;
20124;SDS011;10223;50.862;4.360;2022-08-19T04:49:24;26.83;;;17.80;;
20124;SDS011;10223;50.862;4.360;2022-08-19T04:51:52;32.97;;;17.80;;
20124;SDS011;10223;50.862;4.360;2022-08-19T04:54:21;30.85;;;17.17;;
20124;SDS011;10223;50.862;4.360;2022-08-19T04:56:50;25.33;;;15.10;;
20124;SDS011;10223;50.862;4.360;2022-08-19T04:59:18;25.30;;;15.48;;
20124;SDS011;10223;50.862;4.360;2022-08-19T05:01:45;31.63;;;15.60;;
20124;SDS011;10223;50.862;4.360;2022-08-19T05:04:17;29.00;;;15.05;;
20124;SDS011;10223;50.862;4.360;2022-08-19T05:06:46;24.17;;;14.77;;
20124;SDS011;10223;50.862;4.360;2022-08-19T05:09:13;30.07;;;15.50;;
20124;SDS011;10223;50.862;4.360;2022-08-19T05:11:42;25.20;;;15.95;;
20124;SDS011;10223;50.862;4.360;2022-08-19T05:14:10;32.47;;;16.10;;
20124;SDS011;10223;50.862;4.360;2022-08-19T05:16:38;28.10;;;14.77;;
20124;SDS011;10223;50.862;4.360;2022-08-19T05:19:05;26.05;;;14.75;;
20124;SDS011;10223;50.862;4.360;2022-08-19T05:21:51;30.45;;;14.77;;
20124;SDS011;10223;50.862;4.360;2022-08-19T05:24:36;29.08;;;16.15;;
20124;SDS011;10223;50.862;4.360;2022-08-19T05:27:03;29.30;;;16.15;;
20124;SDS011;10223;50.862;4.360;2022-08-19T05:29:31;34.40;;;17.70;;
20124;SDS011;10223;50.862;4.360;2022-08-19T05:31:59;28.98;;;16.55;;
20124;SDS011;10223;50.862;4.360;2022-08-19T05:34:28;30.25;;;17.40;;
20124;SDS011;10223;50.862;4.360;2022-08-19T05:36:59;29.70;;;16.58;;
20124;SDS011;10223;50.862;4.360;2022-08-19T05:39:29;38.15;;;16.85;;
20124;SDS011;10223;50.862;4.360;2022-08-19T05:41:58;25.00;;;15.63;;
20124;SDS011;10223;50.862;4.360;2022-08-19T05:44:29;27.77;;;14.23;;
20124;SDS011;10223;50.862;4.360;2022-08-19T05:46:57;27.92;;;14.32;;
20124;SDS011;10223;50.862;4.360;2022-08-19T05:49:25;23.45;;;13.68;;
20124;SDS011;10223;50.862;4.360;2022-08-19T05:51:53;29.40;;;14.55;;
20124;SDS011;10223;50.862;4.360;2022-08-19T05:54:23;25.42;;;14.30;;
20124;SDS011;10223;50.862;4.360;2022-08-19T05:56:50;30.83;;;14.98;;
20124;SDS011;10223;50.862;4.360;2022-08-19T05:59:18;30.33;;;14.73;;
20124;SDS011;10223;50.862;4.360;2022-08-19T06:01:46;23.17;;;12.75;;
20124;SDS011;10223;50.862;4.360;2022-08-19T06:04:15;26.25;;;12.77;;
20124;SDS011;10223;50.862;4.360;2022-08-19T06:06:44;27.88;;;13.75;;
20124;SDS011;10223;50.862;4.360;2022-08-19T06:09:12;26.83;;;14.48;;
20124;SDS011;10223;50.862;4.360;2022-08-19T06:11:41;20.55;;;12.13;;
20124;SDS011;10223;50.862;4.360;2022-08-19T06:14:11;23.73;;;12.20;;
20124;SDS011;10223;50.862;4.360;2022-08-19T06:16:41;27.55;;;13.20;;
20124;SDS011;10223;50.862;4.360;2022-08-19T06:19:09;24.15;;;11.52;;
20124;SDS011;10223;50.862;4.360;2022-08-19T06:21:38;23.05;;;11.52;;
20124;SDS011;10223;50.862;4.360;2022-08-19T06:24:09;27.73;;;11.50;;
20124;SDS011;10223;50.862;4.360;2022-08-19T06:26:38;23.00;;;10.68;;
20124;SDS011;10223;50.862;4.360;2022-08-19T06:29:09;28.77;;;11.32;;
20124;SDS011;10223;50.862;4.360;2022-08-19T06:31:40;26.75;;;9.95;;
20124;SDS011;10223;50.862;4.360;2022-08-19T06:34:08;23.48;;;11.63;;
20124;SDS011;10223;50.862;4.360;2022-08-19T06:36:37;24.45;;;10.38;;
20124;SDS011;10223;50.862;4.360;2022-08-19T06:39:06;17.45;;;9.27;;
20124;SDS011;10223;50.862;4.360;2022-08-19T06:41:36;16.35;;;9.43;;
20124;SDS011;10223;50.862;4.360;2022-08-19T06:44:06;20.80;;;9.20;;
20124;SDS011;10223;50.862;4.360;2022-08-19T06:46:33;22.05;;;9.68;;
20124;SDS011;10223;50.862;4.360;2022-08-19T06:49:02;18.35;;;9.98;;
20124;SDS011;10223;50.862;4.360;2022-08-19T06:51:29;17.67;;;8.50;;
20124;SDS011;10223;50.862;4.360;2022-08-19T06:53:57;22.10;;;9.90;;
20124;SDS011;10223;50.862;4.360;2022-08-19T06:56:25;21.17;;;10.27;;
20124;SDS011;10223;50.862;4.360;2022-08-19T06:58:56;23.02;;;9.68;;
20124;SDS011;10223;50.862;4.360;2022-08-19T07:01:24;16.48;;;8.98;;
20124;SDS011;10223;50.862;4.360;2022-08-19T07:03:51;19.92;;;8.80;;
20124;SDS011;10223;50.862;4.360;2022-08-19T07:06:18;17.00;;;8.85;;
20124;SDS011;10223;50.862;4.360;2022-08-19T07:08:46;19.58;;;9.13;;
20124;SDS011;10223;50.862;4.360;2022-08-19T07:11:14;15.75;;;9.45;;
20124;SDS011;10223;50.862;4.360;2022-08-19T07:13:44;19.70;;;9.55;;
20124;SDS011;10223;50.862;4.360;2022-08-19T07:16:14;19.50;;;9.55;;
20124;SDS011;10223;50.862;4.360;2022-08-19T07:18:45;16.77;;;9.23;;
20124;SDS011;10223;50.862;4.360;2022-08-19T07:21:13;16.17;;;9.40;;
20124;SDS011;10223;50.862;4.360;2022-08-19T07:23:42;14.88;;;9.88;;
20124;SDS011;10223;50.862;4.360;2022-08-19T07:26:10;13.30;;;8.18;;
20124;SDS011;10223;50.862;4.360;2022-08-19T07:28:39;14.75;;;7.82;;
20124;SDS011;10223;50.862;4.360;2022-08-19T07:31:09;17.35;;;8.43;;
20124;SDS011;10223;50.862;4.360;2022-08-19T07:33:38;17.75;;;8.50;;
20124;SDS011;10223;50.862;4.360;2022-08-19T07:36:07;15.77;;;7.80;;
20124;SDS011;10223;50.862;4.360;2022-08-19T07:38:37;11.15;;;7.72;;
20124;SDS011;10223;50.862;4.360;2022-08-19T07:41:05;13.65;;;7.03;;
20124;SDS011;10223;50.862;4.360;2022-08-19T07:43:33;13.27;;;6.93;;
20124;SDS011;10223;50.862;4.360;2022-08-19T07:46:00;14.90;;;6.68;;
20124;SDS011;10223;50.862;4.360;2022-08-19T07:48:27;14.93;;;6.45;;
20124;SDS011;10223;50.862;4.360;2022-08-19T07:50:55;12.15;;;7.10;;
20124;SDS011;10223;50.862;4.360;2022-08-19T07:53:25;13.30;;;6.93;;
20124;SDS011;10223;50.862;4.360;2022-08-19T07:55:52;17.45;;;6.60;;
20124;SDS011;10223;50.862;4.360;2022-08-19T07:58:20;17.33;;;7.00;;
20124;SDS011;10223;50.862;4.360;2022-08-19T08:00:49;16.48;;;7.53;;
20124;SDS011;10223;50.862;4.360;2022-08-19T08:03:18;14.30;;;7.57;;
20124;SDS011;10223;50.862;4.360;2022-08-19T08:06:07;12.93;;;7.40;;
20124;SDS011;10223;50.862;4.360;2022-08-19T08:08:52;18.30;;;7.05;;
20124;SDS011;10223;50.862;4.360;2022-08-19T08:11:41;16.88;;;7.22;;
20124;SDS011;10223;50.862;4.360;2022-08-19T08:14:14;11.98;;;6.72;;
20124;SDS011;10223;50.862;4.360;2022-08-19T08:16:42;16.83;;;7.57;;
20124;SDS011;10223;50.862;4.360;2022-08-19T08:19:10;12.23;;;6.78;;
20124;SDS011;10223;50.862;4.360;2022-08-19T08:21:39;12.75;;;6.93;;
20124;SDS011;10223;50.862;4.360;2022-08-19T08:24:08;15.02;;;6.93;;
20124;SDS011;10223;50.862;4.360;2022-08-19T08:26:35;13.05;;;6.97;;
20124;SDS011;10223;50.862;4.360;2022-08-19T08:29:02;12.00;;;6.80;;
20124;SDS011;10223;50.862;4.360;2022-08-19T08:31:30;13.63;;;7.38;;
20124;SDS011;10223;50.862;4.360;2022-08-19T08:33:59;11.73;;;6.47;;
20124;SDS011;10223;50.862;4.360;2022-08-19T08:36:26;13.57;;;6.65;;
20124;SDS011;10223;50.862;4.360;2022-08-19T08:38:53;16.77;;;6.95;;
20124;SDS011;10223;50.862;4.360;2022-08-19T08:41:25;15.82;;;7.47;;
20124;SDS011;10223;50.862;4.360;2022-08-19T08:43:56;14.38;;;6.43;;
20124;SDS011;10223;50.862;4.360;2022-08-19T08:46:25;17.92;;;6.28;;
20124;SDS011;10223;50.862;4.360;2022-08-19T08:49:01;11.85;;;5.75;;
20124;SDS011;10223;50.862;4.360;2022-08-19T08:51:34;11.93;;;5.97;;
20124;SDS011;10223;50.862;4.360;2022-08-19T08:54:05;11.60;;;5.93;;
20124;SDS011;10223;50.862;4.360;2022-08-19T08:56:36;13.57;;;6.45;;
20124;SDS011;10223;50.862;4.360;2022-08-19T08:59:05;14.43;;;6.28;;
20124;SDS011;10223;50.862;4.360;2022-08-19T09:01:36;16.40;;;6.13;;
20124;SDS011;10223;50.862;4.360;2022-08-19T09:04:03;10.68;;;5.47;;
20124;SDS011;10223;50.862;4.360;2022-08-19T09:06:35;12.27;;;5.75;;
20124;SDS011;10223;50.862;4.360;2022-08-19T09:09:10;13.50;;;5.90;;
20124;SDS011;10223;50.862;4.360;2022-08-19T09:11:47;10.63;;;5.78;;
20124;SDS011;10223;50.862;4.360;2022-08-19T09:14:27;10.85;;;5.47;;
20124;SDS011;10223;50.862;4.360;2022-08-19T09:17:00;11.48;;;5.82;;
20124;SDS011;10223;50.862;4.360;2022-08-19T09:19:28;11.18;;;5.70;;
20124;SDS011;10223;50.862;4.360;2022-08-19T09:21:56;12.82;;;5.68;;
20124;SDS011;10223;50.862;4.360;2022-08-19T09:24:25;18.20;;;6.53;;
20124;SDS011;10223;50.862;4.360;2022-08-19T09:26:53;11.80;;;5.78;;
20124;SDS011;10223;50.862;4.360;2022-08-19T09:29:20;9.95;;;5.30;;
20124;SDS011;10223;50.862;4.360;2022-08-19T09:31:47;8.52;;;5.05;;
20124;SDS011;10223;50.862;4.360;2022-08-19T09:34:14;11.27;;;5.18;;
20124;SDS011;10223;50.862;4.360;2022-08-19T09:36:41;13.27;;;5.22;;
20124;SDS011;10223;50.862;4.360;2022-08-19T09:39:08;15.70;;;5.30;;
20124;SDS011;10223;50.862;4.360;2022-08-19T09:41:35;10.88;;;5.88;;
20124;SDS011;10223;50.862;4.360;2022-08-19T09:44:03;9.35;;;5.50;;
20124;SDS011;10223;50.862;4.360;2022-08-19T09:46:30;8.05;;;5.13;;
20124;SDS011;10223;50.862;4.360;2022-08-19T09:48:57;10.88;;;5.53;;
20124;SDS011;10223;50.862;4.360;2022-08-19T09:51:25;8.73;;;5.63;;
20124;SDS011;10223;50.862;4.360;2022-08-19T09:53:55;11.23;;;5.32;;
20124;SDS011;10223;50.862;4.360;2022-08-19T09:56:26;8.07;;;4.63;;
20124;SDS011;10223;50.862;4.360;2022-08-19T09:58:53;9.75;;;5.47;;
20124;SDS011;10223;50.862;4.360;2022-08-19T10:01:22;8.63;;;4.50;;
20124;SDS011;10223;50.862;4.360;2022-08-19T10:03:50;21.77;;;5.47;;
20124;SDS011;10223;50.862;4.360;2022-08-19T10:06:19;12.82;;;5.00;;
20124;SDS011;10223;50.862;4.360;2022-08-19T10:08:47;8.35;;;4.45;;
20124;SDS011;10223;50.862;4.360;2022-08-19T10:11:15;7.80;;;4.63;;
20124;SDS011;10223;50.862;4.360;2022-08-19T10:13:42;7.35;;;4.57;;
20124;SDS011;10223;50.862;4.360;2022-08-19T10:16:10;7.22;;;4.72;;
20124;SDS011;10223;50.862;4.360;2022-08-19T10:18:40;8.43;;;4.63;;
20124;SDS011;10223;50.862;4.360;2022-08-19T10:21:10;8.07;;;4.95;;
20124;SDS011;10223;50.862;4.360;2022-08-19T10:23:40;7.55;;;4.22;;
20124;SDS011;10223;50.862;4.360;2022-08-19T10:26:10;8.77;;;4.95;;
20124;SDS011;10223;50.862;4.360;2022-08-19T10:28:38;11.80;;;5.40;;
20124;SDS011;10223;50.862;4.360;2022-08-19T10:31:07;11.77;;;4.95;;
20124;SDS011;10223;50.862;4.360;2022-08-19T10:33:35;8.20;;;5.25;;
20124;SDS011;10223;50.862;4.360;2022-08-19T10:36:05;10.82;;;4.72;;
20124;SDS011;10223;50.862;4.360;2022-08-19T10:38:34;14.00;;;5.07;;
20124;SDS011;10223;50.862;4.360;2022-08-19T10:41:08;9.93;;;5.85;;
20124;SDS011;10223;50.862;4.360;2022-08-19T10:43:38;12.88;;;5.72;;
20124;SDS011;10223;50.862;4.360;2022-08-19T10:46:06;14.32;;;7.03;;
20124;SDS011;10223;50.862;4.360;2022-08-19T10:48:33;8.98;;;5.40;;
20124;SDS011;10223;50.862;4.360;2022-08-19T10:51:01;11.82;;;5.93;;
20124;SDS011;10223;50.862;4.360;2022-08-19T10:53:47;10.05;;;5.45;;
20124;SDS011;10223;50.862;4.360;2022-08-19T10:56:14;11.50;;;6.15;;
20124;SDS011;10223;50.862;4.360;2022-08-19T10:58:59;10.30;;;5.50;;
20124;SDS011;10223;50.862;4.360;2022-08-19T11:01:28;9.75;;;5.80;;
20124;SDS011;10223;50.862;4.360;2022-08-19T11:03:56;14.50;;;6.05;;
20124;SDS011;10223;50.862;4.360;2022-08-19T11:06:23;16.25;;;5.97;;
20124;SDS011;10223;50.862;4.360;2022-08-19T11:08:52;11.30;;;5.85;;
20124;SDS011;10223;50.862;4.360;2022-08-19T11:11:19;10.45;;;5.72;;
20124;SDS011;10223;50.862;4.360;2022-08-19T11:13:47;10.40;;;6.10;;
20124;SDS011;10223;50.862;4.360;2022-08-19T11:16:15;8.82;;;5.90;;
20124;SDS011;10223;50.862;4.360;2022-08-19T11:18:44;9.63;;;6.35;;
20124;SDS011;10223;50.862;4.360;2022-08-19T11:21:13;11.00;;;6.00;;
20124;SDS011;10223;50.862;4.360;2022-08-19T11:23:44;7.70;;;5.35;;
20124;SDS011;10223;50.862;4.360;2022-08-19T11:26:13;8.02;;;5.43;;
20124;SDS011;10223;50.862;4.360;2022-08-19T11:28:41;7.13;;;5.00;;
20124;SDS011;10223;50.862;4.360;2022-08-19T11:31:09;8.25;;;5.18;;
20124;SDS011;10223;50.862;4.360;2022-08-19T11:33:37;13.88;;;7.00;;
20124;SDS011;10223;50.862;4.360;2022-08-19T11:36:05;18.10;;;8.63;;
20124;SDS011;10223;50.862;4.360;2022-08-19T11:38:32;13.90;;;8.40;;
20124;SDS011;10223;50.862;4.360;2022-08-19T11:41:01;16.38;;;8.50;;
20124;SDS011;10223;50.862;4.360;2022-08-19T11:43:30;13.50;;;9.15;;
20124;SDS011;10223;50.862;4.360;2022-08-19T11:45:57;13.48;;;9.35;;
20124;SDS011;10223;50.862;4.360;2022-08-19T11:48:25;13.77;;;9.25;;
20124;SDS011;10223;50.862;4.360;2022-08-19T11:51:02;14.40;;;8.30;;
20124;SDS011;10223;50.862;4.360;2022-08-19T11:53:31;14.10;;;8.27;;
20124;SDS011;10223;50.862;4.360;2022-08-19T11:55:59;11.85;;;8.00;;
20124;SDS011;10223;50.862;4.360;2022-08-19T11:58:26;11.88;;;8.18;;
20124;SDS011;10223;50.862;4.360;2022-08-19T12:00:55;13.77;;;8.07;;
20124;SDS011;10223;50.862;4.360;2022-08-19T12:03:22;14.07;;;8.93;;
20124;SDS011;10223;50.862;4.360;2022-08-19T12:05:49;13.27;;;8.32;;
20124;SDS011;10223;50.862;4.360;2022-08-19T12:08:17;11.75;;;7.10;;
20124;SDS011;10223;50.862;4.360;2022-08-19T12:10:44;13.35;;;7.15;;
20124;SDS011;10223;50.862;4.360;2022-08-19T12:13:12;8.43;;;6.68;;
20124;SDS011;10223;50.862;4.360;2022-08-19T12:15:43;13.63;;;6.80;;
20124;SDS011;10223;50.862;4.360;2022-08-19T12:18:13;13.65;;;6.68;;
20124;SDS011;10223;50.862;4.360;2022-08-19T12:20:40;11.13;;;6.10;;
20124;SDS011;10223;50.862;4.360;2022-08-19T12:23:10;12.55;;;6.38;;
20124;SDS011;10223;50.862;4.360;2022-08-19T12:25:42;9.65;;;5.70;;
20124;SDS011;10223;50.862;4.360;2022-08-19T12:28:17;11.02;;;6.35;;
20124;SDS011;10223;50.862;4.360;2022-08-19T12:30:45;9.40;;;5.32;;
20124;SDS011;10223;50.862;4.360;2022-08-19T12:33:13;9.52;;;4.65;;
20124;SDS011;10223;50.862;4.360;2022-08-19T12:35:41;7.78;;;4.57;;
20124;SDS011;10223;50.862;4.360;2022-08-19T12:38:08;7.95;;;4.32;;
20124;SDS011;10223;50.862;4.360;2022-08-19T12:40:36;6.70;;;4.22;;
20124;SDS011;10223;50.862;4.360;2022-08-19T12:43:04;9.48;;;4.15;;
20124;SDS011;10223;50.862;4.360;2022-08-19T12:45:30;4.78;;;3.47;;
20124;SDS011;10223;50.862;4.360;2022-08-19T12:47:57;5.80;;;3.45;;
20124;SDS011;10223;50.862;4.360;2022-08-19T12:50:26;4.97;;;3.22;;
20124;SDS011;10223;50.862;4.360;2022-08-19T12:52:53;7.90;;;3.97;;
20124;SDS011;10223;50.862;4.360;2022-08-19T12:55:20;7.43;;;3.63;;
20124;SDS011;10223;50.862;4.360;2022-08-19T12:57:47;8.13;;;4.13;;
20124;SDS011;10223;50.862;4.360;2022-08-19T13:00:14;4.15;;;3.10;;
20124;SDS011;10223;50.862;4.360;2022-08-19T13:02:44;4.32;;;3.03;;
20124;SDS011;10223;50.862;4.360;2022-08-19T13:05:13;5.82;;;3.67;;
20124;SDS011;10223;50.862;4.360;2022-08-19T13:07:43;8.05;;;3.92;;
20124;SDS011;10223;50.862;4.360;2022-08-19T13:10:11;13.23;;;3.10;;
20124;SDS011;10223;50.862;4.360;2022-08-19T13:12:40;7.43;;;3.05;;
20124;SDS011;10223;50.862;4.360;2022-08-19T13:15:07;6.88;;;3.38;;
20124;SDS011;10223;50.862;4.360;2022-08-19T13:17:35;9.15;;;3.30;;
20124;SDS011;10223;50.862;4.360;2022-08-19T13:20:03;5.72;;;3.17;;
20124;SDS011;10223;50.862;4.360;2022-08-19T13:22:32;4.97;;;2.65;;
20124;SDS011;10223;50.862;4.360;2022-08-19T13:25:03;6.20;;;2.97;;
20124;SDS011;10223;50.862;4.360;2022-08-19T13:27:30;6.60;;;3.10;;
20124;SDS011;10223;50.862;4.360;2022-08-19T13:29:57;6.75;;;3.08;;
20124;SDS011;10223;50.862;4.360;2022-08-19T13:32:42;4.38;;;2.40;;
20124;SDS011;10223;50.862;4.360;2022-08-19T13:35:26;4.07;;;2.65;;
20124;SDS011;10223;50.862;4.360;2022-08-19T13:37:53;5.47;;;2.50;;
20124;SDS011;10223;50.862;4.360;2022-08-19T13:40:22;5.72;;;3.03;;
20124;SDS011;10223;50.862;4.360;2022-08-19T13:42:52;4.38;;;3.13;;
20124;SDS011;10223;50.862;4.360;2022-08-19T13:45:21;9.77;;;2.90;;
20124;SDS011;10223;50.862;4.360;2022-08-19T13:47:51;8.65;;;2.50;;
20124;SDS011;10223;50.862;4.360;2022-08-19T13:50:21;5.65;;;2.90;;
20124;SDS011;10223;50.862;4.360;2022-08-19T13:52:49;5.72;;;2.50;;
20124;SDS011;10223;50.862;4.360;2022-08-19T13:55:17;5.10;;;3.03;;
20124;SDS011;10223;50.862;4.360;2022-08-19T13:57:46;4.07;;;2.20;;
20124;SDS011;10223;50.862;4.360;2022-08-19T14:00:16;4.85;;;2.80;;
20124;SDS011;10223;50.862;4.360;2022-08-19T14:02:47;8.80;;;3.10;;
20124;SDS011;10223;50.862;4.360;2022-08-19T14:05:17;13.57;;;5.18;;
20124;SDS011;10223;50.862;4.360;2022-08-19T14:07:45;4.90;;;2.65;;
20124;SDS011;10223;50.862;4.360;2022-08-19T14:10:12;13.95;;;2.63;;
20124;SDS011;10223;50.862;4.360;2022-08-19T14:12:40;13.90;;;3.20;;
20124;SDS011;10223;50.862;4.360;2022-08-19T14:15:10;13.57;;;2.65;;
20124;SDS011;10223;50.862;4.360;2022-08-19T14:17:37;4.80;;;2.35;;
20124;SDS011;10223;50.862;4.360;2022-08-19T14:20:06;23.73;;;13.13;;
20124;SDS011;10223;50.862;4.360;2022-08-19T14:22:34;9.88;;;2.85;;
20124;SDS011;10223;50.862;4.360;2022-08-19T14:25:02;4.00;;;2.75;;
20124;SDS011;10223;50.862;4.360;2022-08-19T14:27:29;7.40;;;2.65;;
20124;SDS011;10223;50.862;4.360;2022-08-19T14:29:58;6.03;;;2.22;;
20124;SDS011;10223;50.862;4.360;2022-08-19T14:32:26;8.40;;;4.65;;
20124;SDS011;10223;50.862;4.360;2022-08-19T14:34:53;13.15;;;4.47;;
20124;SDS011;10223;50.862;4.360;2022-08-19T14:37:20;3.00;;;1.60;;
20124;SDS011;10223;50.862;4.360;2022-08-19T14:39:47;6.57;;;2.20;;
20124;SDS011;10223;50.862;4.360;2022-08-19T14:42:14;2.88;;;1.70;;